createdAt,value
2022-12-31T00:01:26.737Z,8.34
2022-12-31T00:03:54.276Z,8.30
2022-12-31T00:06:23.705Z,8.26
2022-12-31T00:08:51.665Z,8.32
2022-12-31T00:11:19.103Z,8.37
2022-12-31T00:13:49.562Z,8.37
2022-12-31T00:16:19.349Z,8.39
2022-12-31T00:18:47.895Z,8.36
2022-12-31T00:21:15.749Z,8.30
2022-12-31T00:23:43.417Z,8.24
2022-12-31T00:26:15.212Z,8.13
2022-12-31T00:28:42.603Z,7.98
2022-12-31T00:31:17.003Z,7.85
2022-12-31T00:33:44.527Z,7.71
2022-12-31T00:36:13.808Z,7.66
2022-12-31T00:38:42.276Z,7.64
2022-12-31T00:41:09.937Z,7.64
2022-12-31T00:43:37.237Z,7.62
2022-12-31T00:46:05.545Z,7.64
2022-12-31T00:48:33.208Z,7.65
2022-12-31T00:51:01.330Z,7.61
2022-12-31T00:53:29.074Z,7.50
2022-12-31T00:56:13.079Z,7.49
2022-12-31T00:58:40.368Z,7.42
2022-12-31T01:01:10.517Z,7.44
2022-12-31T01:03:38.006Z,7.44
2022-12-31T01:06:06.035Z,7.40
2022-12-31T01:08:33.350Z,7.40
2022-12-31T01:11:19.308Z,7.41
2022-12-31T01:13:47.449Z,7.44
2022-12-31T01:16:14.981Z,7.46
2022-12-31T01:18:42.388Z,7.45
2022-12-31T01:21:10.845Z,7.47
2022-12-31T01:23:38.147Z,7.50
2022-12-31T01:26:07.379Z,7.51
2022-12-31T01:28:34.724Z,7.55
2022-12-31T01:31:09.849Z,7.58
2022-12-31T01:33:37.638Z,7.60
2022-12-31T01:36:06.187Z,7.65
2022-12-31T01:38:34.029Z,7.67
2022-12-31T01:41:01.369Z,7.66
2022-12-31T01:43:45.693Z,7.65
2022-12-31T01:46:14.370Z,7.66
2022-12-31T01:48:41.875Z,7.65
2022-12-31T01:51:09.782Z,7.57
2022-12-31T01:53:40.691Z,7.56
2022-12-31T01:56:08.460Z,7.68
2022-12-31T01:58:41.399Z,7.86
2022-12-31T02:01:10.247Z,7.96
2022-12-31T02:03:37.516Z,8.10
2022-12-31T02:06:15.759Z,8.54
2022-12-31T02:08:43.882Z,9.00
2022-12-31T02:11:23.077Z,9.33
2022-12-31T02:13:56.540Z,9.61
2022-12-31T02:16:25.480Z,9.82
2022-12-31T02:18:58.630Z,10.04
2022-12-31T02:22:04.531Z,10.12
2022-12-31T02:24:32.283Z,10.25
2022-12-31T02:27:07.141Z,10.32
2022-12-31T02:29:53.279Z,10.51
2022-12-31T02:32:20.548Z,10.59
2022-12-31T02:34:50.889Z,10.67
2022-12-31T02:37:20.739Z,10.73
2022-12-31T02:39:48.295Z,10.70
2022-12-31T02:42:15.528Z,10.71
2022-12-31T02:44:42.902Z,10.79
2022-12-31T02:47:10.183Z,10.92
2022-12-31T02:49:55.922Z,10.98
2022-12-31T02:52:23.245Z,10.96
2022-12-31T02:54:50.453Z,11.05
2022-12-31T02:57:27.249Z,11.09
2022-12-31T03:00:26.649Z,11.17
2022-12-31T03:02:55.109Z,11.23
2022-12-31T03:05:27.241Z,11.30
2022-12-31T03:07:54.729Z,11.40
2022-12-31T03:10:21.928Z,11.47
2022-12-31T03:12:49.364Z,11.44
2022-12-31T03:15:23.576Z,11.50
2022-12-31T03:17:50.756Z,11.49
2022-12-31T03:20:36.597Z,11.58
2022-12-31T03:23:05.470Z,11.64
2022-12-31T03:25:35.816Z,11.65
2022-12-31T03:28:04.282Z,11.64
2022-12-31T03:30:32.097Z,11.67
2022-12-31T03:33:00.114Z,11.66
2022-12-31T03:35:28.313Z,11.61
2022-12-31T03:37:56.672Z,11.69
2022-12-31T03:40:24.791Z,11.79
2022-12-31T03:42:52.182Z,11.74
2022-12-31T03:45:19.435Z,11.79
2022-12-31T03:47:47.762Z,11.68
2022-12-31T03:50:16.198Z,11.53
2022-12-31T03:52:43.524Z,11.33
2022-12-31T03:55:11.115Z,11.19
2022-12-31T03:57:38.820Z,11.02
2022-12-31T04:00:07.745Z,10.92
2022-12-31T04:02:35.151Z,10.81
2022-12-31T04:05:02.459Z,10.70
2022-12-31T04:07:30.105Z,10.65
2022-12-31T04:09:57.573Z,10.65
2022-12-31T04:12:24.799Z,10.64
2022-12-31T04:14:51.951Z,10.66
2022-12-31T04:17:19.313Z,10.67
2022-12-31T04:19:46.630Z,10.69
2022-12-31T04:22:13.972Z,10.63
2022-12-31T04:24:42.242Z,10.63
2022-12-31T04:27:10.589Z,10.65
2022-12-31T04:29:37.825Z,10.65
2022-12-31T04:32:05.705Z,10.64
2022-12-31T04:34:33.055Z,10.65
2022-12-31T04:37:00.750Z,10.67
2022-12-31T04:39:28.137Z,10.64
2022-12-31T04:41:55.553Z,10.64
2022-12-31T04:44:22.768Z,10.63
2022-12-31T04:46:50.086Z,10.60
2022-12-31T04:49:17.365Z,10.60
2022-12-31T04:51:44.708Z,10.64
2022-12-31T04:54:11.891Z,10.62
2022-12-31T04:56:39.247Z,10.65
2022-12-31T04:59:07.463Z,10.70
2022-12-31T05:01:36.861Z,10.74
2022-12-31T05:04:04.216Z,10.74
2022-12-31T05:06:31.473Z,10.76
2022-12-31T05:08:59.152Z,10.81
2022-12-31T05:11:27.849Z,10.87
2022-12-31T05:13:55.035Z,10.94
2022-12-31T05:16:22.359Z,10.99
2022-12-31T05:18:49.606Z,11.02
2022-12-31T05:21:19.783Z,11.03
2022-12-31T05:23:47.214Z,11.06
2022-12-31T05:30:08.990Z,11.11
2022-12-31T05:32:36.269Z,11.05
2022-12-31T05:35:03.944Z,11.04
2022-12-31T05:37:31.487Z,11.05
2022-12-31T05:39:58.832Z,11.06
2022-12-31T05:42:26.651Z,11.01
2022-12-31T05:44:54.042Z,10.96
2022-12-31T05:47:21.751Z,10.93
2022-12-31T05:49:49.039Z,10.95
2022-12-31T05:52:16.382Z,10.91
2022-12-31T05:54:43.643Z,10.91
2022-12-31T05:57:10.908Z,10.91
2022-12-31T05:59:38.132Z,10.90
2022-12-31T06:02:05.425Z,10.88
2022-12-31T06:04:34.247Z,10.74
2022-12-31T06:07:01.509Z,10.69
2022-12-31T06:09:28.719Z,10.60
2022-12-31T06:11:56.013Z,10.60
2022-12-31T06:14:23.277Z,10.53
2022-12-31T06:16:50.638Z,10.50
2022-12-31T06:19:17.810Z,10.52
2022-12-31T06:21:45.166Z,10.59
2022-12-31T06:24:12.458Z,10.72
2022-12-31T06:26:39.735Z,10.85
2022-12-31T06:29:06.963Z,10.96
2022-12-31T06:31:34.349Z,11.42
2022-12-31T06:34:01.574Z,11.64
2022-12-31T06:36:29.322Z,11.80
2022-12-31T06:41:33.315Z,11.94
2022-12-31T06:44:00.963Z,12.12
2022-12-31T06:46:28.483Z,12.16
2022-12-31T06:48:56.044Z,12.14
2022-12-31T06:51:23.944Z,12.26
2022-12-31T06:53:52.132Z,12.24
2022-12-31T06:56:34.441Z,12.33
2022-12-31T06:59:03.976Z,12.41
2022-12-31T07:01:49.125Z,12.37
2022-12-31T07:04:34.813Z,12.43
2022-12-31T07:07:23.004Z,12.49
2022-12-31T07:09:51.362Z,12.50
2022-12-31T07:12:34.053Z,12.65
2022-12-31T07:15:06.481Z,12.71
2022-12-31T07:17:56.012Z,12.76
2022-12-31T07:20:23.890Z,12.84
2022-12-31T07:22:51.670Z,12.86
2022-12-31T07:25:19.676Z,12.85
2022-12-31T07:27:56.320Z,12.93
2022-12-31T07:30:51.208Z,12.94
2022-12-31T07:33:37.604Z,12.94
2022-12-31T07:36:26.374Z,13.06
2022-12-31T07:39:02.141Z,13.12
2022-12-31T07:42:10.713Z,13.24
2022-12-31T07:44:49.336Z,13.29
2022-12-31T07:47:25.833Z,13.30
2022-12-31T07:49:53.742Z,13.42
2022-12-31T07:52:22.273Z,13.43
2022-12-31T07:54:50.055Z,13.46
2022-12-31T07:57:19.696Z,13.49
2022-12-31T08:00:05.158Z,13.58
2022-12-31T08:02:56.752Z,13.74
2022-12-31T08:05:50.584Z,13.83
2022-12-31T08:08:39.509Z,13.88
2022-12-31T08:11:12.115Z,13.94
2022-12-31T08:13:42.705Z,13.94
2022-12-31T08:16:13.908Z,14.03
2022-12-31T08:18:41.868Z,14.05
2022-12-31T08:21:46.102Z,14.07
2022-12-31T08:24:30.897Z,14.10
2022-12-31T08:27:12.621Z,14.17
2022-12-31T08:29:58.309Z,14.20
2022-12-31T08:32:40.229Z,14.28
2022-12-31T08:35:40.973Z,14.36
2022-12-31T08:38:45.934Z,14.48
2022-12-31T08:41:42.462Z,14.49
2022-12-31T08:44:28.579Z,14.53
2022-12-31T08:47:26.478Z,14.58
2022-12-31T08:49:55.599Z,14.58
2022-12-31T08:52:26.061Z,14.62
2022-12-31T08:54:54.332Z,14.60
2022-12-31T08:57:46.602Z,14.65
2022-12-31T09:00:17.224Z,14.68
2022-12-31T09:03:17.444Z,14.65
2022-12-31T09:06:03.335Z,14.65
2022-12-31T09:08:37.692Z,14.72
2022-12-31T09:11:29.301Z,14.80
2022-12-31T09:14:21.534Z,14.75
2022-12-31T09:16:59.846Z,14.74
2022-12-31T09:19:28.213Z,14.78
2022-12-31T09:21:56.086Z,14.83
2022-12-31T09:24:23.789Z,14.87
2022-12-31T09:27:09.352Z,14.95
2022-12-31T09:29:48.708Z,15.00
2022-12-31T09:32:38.396Z,15.06
2022-12-31T09:35:12.002Z,15.01
2022-12-31T09:37:51.507Z,15.06
2022-12-31T09:40:21.701Z,14.98
2022-12-31T09:43:32.373Z,14.96
2022-12-31T09:46:12.074Z,14.93
2022-12-31T09:48:48.384Z,14.91
2022-12-31T09:51:40.506Z,14.91
2022-12-31T09:54:30.369Z,14.93
2022-12-31T09:57:13.320Z,14.95
2022-12-31T10:00:23.951Z,15.01
2022-12-31T10:03:23.335Z,15.09
2022-12-31T10:06:05.091Z,15.14
2022-12-31T10:08:44.561Z,15.25
2022-12-31T10:11:27.396Z,15.25
2022-12-31T10:14:25.928Z,15.30
2022-12-31T10:17:20.787Z,15.33
2022-12-31T10:20:22.286Z,15.37
2022-12-31T10:22:50.630Z,15.40
2022-12-31T10:25:39.542Z,15.48
2022-12-31T10:28:44.784Z,15.48
2022-12-31T10:31:17.010Z,15.43
2022-12-31T10:33:53.532Z,15.49
2022-12-31T10:36:31.856Z,15.46
2022-12-31T10:39:17.669Z,15.46
2022-12-31T10:42:21.757Z,15.43
2022-12-31T10:45:13.574Z,15.41
2022-12-31T10:47:53.413Z,15.45
2022-12-31T10:50:20.964Z,15.49
2022-12-31T10:53:27.602Z,15.59
2022-12-31T10:56:19.620Z,15.59
2022-12-31T10:59:11.678Z,15.62
2022-12-31T11:01:50.541Z,15.55
2022-12-31T11:04:37.584Z,15.63
2022-12-31T11:07:26.947Z,15.55
2022-12-31T11:10:28.226Z,15.57
2022-12-31T11:13:04.412Z,15.57
2022-12-31T11:15:53.354Z,15.53
2022-12-31T11:18:34.519Z,15.54
2022-12-31T11:21:13.838Z,15.60
2022-12-31T11:24:17.666Z,15.64
2022-12-31T11:27:09.363Z,15.75
2022-12-31T11:30:11.634Z,15.81
2022-12-31T11:32:54.864Z,15.79
2022-12-31T11:35:45.378Z,15.82
2022-12-31T11:38:18.514Z,15.77
2022-12-31T11:41:19.567Z,15.84
2022-12-31T11:44:11.021Z,15.83
2022-12-31T11:46:56.250Z,15.93
2022-12-31T11:50:00.903Z,15.93
2022-12-31T11:52:55.855Z,15.93
2022-12-31T11:55:45.763Z,16.02
2022-12-31T11:58:19.449Z,15.97
2022-12-31T12:00:54.138Z,16.02
2022-12-31T12:03:23.283Z,15.98
2022-12-31T12:05:51.193Z,16.02
2022-12-31T12:08:19.177Z,16.01
2022-12-31T12:10:49.204Z,15.99
2022-12-31T12:13:19.576Z,15.99
2022-12-31T12:15:51.066Z,15.95
2022-12-31T12:18:41.168Z,15.98
2022-12-31T12:21:12.966Z,15.95
2022-12-31T12:23:42.785Z,15.98
2022-12-31T12:26:41.698Z,16.06
2022-12-31T12:29:20.915Z,16.11
2022-12-31T12:31:59.098Z,16.21
2022-12-31T12:34:44.556Z,16.26
2022-12-31T12:37:37.161Z,16.37
2022-12-31T12:40:18.099Z,16.42
2022-12-31T12:42:50.201Z,16.51
2022-12-31T12:45:21.901Z,16.61
2022-12-31T12:47:55.765Z,16.57
2022-12-31T12:50:26.272Z,16.52
2022-12-31T12:53:15.211Z,16.47
2022-12-31T12:56:04.096Z,16.49
2022-12-31T12:58:43.678Z,16.50
2022-12-31T13:01:34.998Z,16.47
2022-12-31T13:04:37.917Z,16.41
2022-12-31T13:07:24.565Z,16.27
2022-12-31T13:10:03.841Z,16.26
2022-12-31T13:15:47.619Z,16.28
2022-12-31T13:18:38.276Z,16.21
2022-12-31T13:21:36.099Z,16.27
2022-12-31T13:24:18.864Z,16.22
2022-12-31T13:27:01.031Z,16.24
2022-12-31T13:29:33.362Z,16.20
2022-12-31T13:32:04.906Z,16.13
2022-12-31T13:34:39.736Z,16.17
2022-12-31T13:37:37.758Z,16.20
2022-12-31T13:40:30.691Z,16.13
2022-12-31T13:43:03.290Z,16.10
2022-12-31T13:45:44.472Z,16.02
2022-12-31T13:48:23.382Z,15.98
2022-12-31T13:51:04.759Z,15.97
2022-12-31T13:53:42.780Z,15.99
2022-12-31T13:56:16.860Z,15.87
2022-12-31T13:58:54.502Z,15.85
2022-12-31T14:01:41.224Z,15.86
2022-12-31T14:04:18.519Z,15.82
2022-12-31T14:07:00.970Z,15.81
2022-12-31T14:09:33.626Z,15.78
2022-12-31T14:12:10.103Z,15.86
2022-12-31T14:15:01.892Z,15.74
2022-12-31T14:17:41.486Z,15.70
2022-12-31T14:20:29.239Z,15.67
2022-12-31T14:23:26.670Z,15.65
2022-12-31T14:26:04.696Z,15.58
2022-12-31T14:28:56.170Z,15.61
2022-12-31T14:31:48.670Z,15.62
2022-12-31T14:34:19.026Z,15.61
2022-12-31T14:37:13.343Z,15.66
2022-12-31T14:39:46.662Z,15.60
2022-12-31T14:42:42.104Z,15.56
2022-12-31T14:45:50.861Z,15.64
2022-12-31T14:48:36.310Z,15.64
2022-12-31T14:51:05.029Z,15.56
2022-12-31T14:53:32.727Z,15.63
2022-12-31T14:56:05.830Z,15.55
2022-12-31T14:58:35.440Z,15.51
2022-12-31T15:01:19.408Z,15.51
2022-12-31T15:03:47.014Z,15.50
2022-12-31T15:06:23.262Z,15.38
2022-12-31T15:09:15.688Z,15.35
2022-12-31T15:11:46.420Z,15.39
2022-12-31T15:14:16.807Z,15.43
2022-12-31T15:17:09.206Z,15.42
2022-12-31T15:19:52.883Z,15.33
2022-12-31T15:22:58.837Z,15.30
2022-12-31T15:25:40.726Z,15.21
2022-12-31T15:28:45.160Z,15.22
2022-12-31T15:31:20.080Z,15.21
2022-12-31T15:34:23.735Z,15.18
2022-12-31T15:36:57.524Z,15.17
2022-12-31T15:39:38.677Z,15.18
2022-12-31T15:42:38.715Z,15.13
2022-12-31T15:45:17.421Z,15.14
2022-12-31T15:47:48.741Z,15.10
2022-12-31T15:50:20.729Z,15.14
2022-12-31T15:52:57.957Z,15.21
2022-12-31T15:55:27.538Z,15.20
2022-12-31T15:58:11.972Z,15.13
2022-12-31T16:01:20.407Z,15.07
2022-12-31T16:04:01.737Z,15.16
2022-12-31T16:06:31.758Z,15.16
2022-12-31T16:08:59.690Z,15.13
2022-12-31T16:11:30.549Z,15.06
2022-12-31T16:13:59.539Z,15.07
2022-12-31T16:16:31.966Z,15.07
2022-12-31T16:19:00.811Z,15.06
2022-12-31T16:21:35.352Z,15.09
2022-12-31T16:24:27.854Z,15.01
2022-12-31T16:27:00.028Z,15.00
2022-12-31T16:29:27.857Z,14.95
2022-12-31T16:31:55.554Z,14.92
2022-12-31T16:34:26.160Z,14.96
2022-12-31T16:36:59.511Z,14.93
2022-12-31T16:39:30.310Z,14.98
2022-12-31T16:42:19.028Z,15.03
2022-12-31T16:44:47.895Z,15.01
2022-12-31T16:47:18.449Z,14.95
2022-12-31T16:50:00.147Z,14.98
2022-12-31T16:52:32.519Z,15.00
2022-12-31T16:55:00.470Z,14.99
2022-12-31T16:57:31.151Z,14.91
2022-12-31T17:00:03.180Z,14.98
2022-12-31T17:02:38.173Z,15.03
2022-12-31T17:05:19.021Z,15.07
2022-12-31T17:07:46.642Z,15.12
2022-12-31T17:10:16.740Z,15.18
2022-12-31T17:15:42.524Z,15.14
2022-12-31T17:18:20.886Z,15.21
2022-12-31T17:20:53.630Z,15.13
2022-12-31T17:23:31.569Z,15.12
2022-12-31T17:26:01.346Z,15.09
2022-12-31T17:28:51.045Z,15.02
2022-12-31T17:31:35.285Z,15.04
2022-12-31T17:34:14.887Z,15.01
2022-12-31T17:36:53.059Z,15.03
2022-12-31T17:39:22.974Z,14.99
2022-12-31T17:41:52.851Z,15.01
2022-12-31T17:44:22.989Z,15.04
2022-12-31T17:46:50.728Z,15.07
2022-12-31T17:49:22.019Z,15.09
2022-12-31T17:51:49.540Z,14.99
2022-12-31T17:54:18.544Z,14.94
2022-12-31T17:56:46.580Z,14.80
2022-12-31T17:59:25.888Z,14.68
2022-12-31T18:01:53.714Z,14.60
2022-12-31T18:04:21.520Z,14.52
2022-12-31T18:06:49.045Z,14.38
2022-12-31T18:09:16.527Z,14.31
2022-12-31T18:11:45.322Z,14.22
2022-12-31T18:14:16.093Z,14.21
2022-12-31T18:16:43.683Z,14.11
2022-12-31T18:19:37.844Z,14.06
2022-12-31T18:22:03.385Z,13.95
2022-12-31T18:24:30.807Z,13.87
2022-12-31T18:26:58.329Z,13.76
2022-12-31T18:29:25.879Z,13.68
2022-12-31T18:31:54.086Z,13.64
2022-12-31T18:34:21.668Z,13.57
2022-12-31T18:36:49.169Z,13.56
2022-12-31T18:39:16.680Z,13.49
2022-12-31T18:41:51.087Z,13.46
2022-12-31T18:44:18.688Z,13.43
2022-12-31T18:46:46.180Z,13.43
2022-12-31T18:49:13.702Z,13.31
2022-12-31T18:51:41.152Z,13.27
2022-12-31T18:54:12.079Z,13.18
2022-12-31T18:56:44.816Z,13.07
2022-12-31T18:59:14.753Z,13.11
2022-12-31T19:01:42.377Z,13.17
2022-12-31T19:04:27.000Z,13.19
2022-12-31T19:06:56.699Z,13.18
2022-12-31T19:09:44.577Z,13.10
2022-12-31T19:12:13.249Z,12.99
2022-12-31T19:14:40.762Z,12.96
2022-12-31T19:19:37.328Z,13.15
2022-12-31T19:22:04.925Z,13.31
2022-12-31T19:24:32.444Z,13.42
2022-12-31T19:27:00.957Z,13.44
2022-12-31T19:29:28.957Z,13.52
2022-12-31T19:31:58.259Z,13.75
2022-12-31T19:34:25.876Z,14.01
2022-12-31T19:36:53.338Z,14.12
2022-12-31T19:39:21.763Z,14.21
2022-12-31T19:41:56.643Z,14.49
2022-12-31T19:44:26.611Z,14.64
2022-12-31T19:46:54.189Z,14.73
2022-12-31T19:49:21.827Z,14.77
2022-12-31T19:51:49.288Z,14.79
2022-12-31T19:54:16.830Z,14.85
2022-12-31T19:56:44.291Z,14.94
2022-12-31T19:59:12.000Z,15.00
2022-12-31T20:01:39.555Z,15.09
2022-12-31T20:04:07.397Z,15.16
2022-12-31T20:06:34.908Z,15.23
2022-12-31T20:09:03.246Z,15.27
2022-12-31T20:11:30.830Z,15.31
2022-12-31T20:13:58.457Z,15.31
2022-12-31T20:16:31.829Z,15.32
2022-12-31T20:18:59.550Z,15.32
2022-12-31T20:21:28.820Z,15.45
2022-12-31T20:23:57.736Z,15.44
2022-12-31T20:26:26.137Z,15.50
2022-12-31T20:28:53.787Z,15.55
2022-12-31T20:31:24.687Z,15.56
2022-12-31T20:33:54.404Z,15.75
2022-12-31T20:36:22.625Z,15.78
2022-12-31T20:38:50.612Z,15.74
2022-12-31T20:41:20.440Z,15.79
2022-12-31T20:43:48.360Z,15.70
2022-12-31T20:46:22.160Z,15.80
2022-12-31T20:48:50.386Z,15.79
2022-12-31T20:51:18.717Z,15.75
2022-12-31T20:53:57.637Z,15.62
2022-12-31T20:56:28.219Z,15.67
2022-12-31T20:58:56.235Z,15.64
2022-12-31T21:01:25.260Z,15.47
2022-12-31T21:04:09.401Z,15.50
2022-12-31T21:06:36.961Z,15.43
2022-12-31T21:09:09.488Z,15.38
2022-12-31T21:11:55.710Z,15.50
2022-12-31T21:14:23.336Z,15.47
2022-12-31T21:16:51.099Z,15.45
2022-12-31T21:19:18.679Z,15.39
2022-12-31T21:21:48.257Z,15.36
2022-12-31T21:24:21.785Z,15.43
2022-12-31T21:26:54.579Z,15.38
2022-12-31T21:29:22.286Z,15.36
2022-12-31T21:31:50.039Z,15.43
2022-12-31T21:34:17.789Z,15.44
2022-12-31T21:36:45.232Z,15.40
2022-12-31T21:39:12.789Z,15.38
2022-12-31T21:41:52.403Z,15.38
2022-12-31T21:44:22.661Z,15.52
2022-12-31T21:47:38.611Z,15.52
2022-12-31T21:50:08.335Z,15.45
2022-12-31T21:52:35.780Z,15.48
2022-12-31T21:55:23.859Z,15.52
2022-12-31T21:58:24.786Z,15.49
2022-12-31T22:00:59.129Z,15.54
2022-12-31T22:03:29.477Z,15.50
2022-12-31T22:06:12.628Z,15.56
2022-12-31T22:08:42.507Z,15.47
2022-12-31T22:11:11.267Z,15.58
2022-12-31T22:13:39.558Z,15.56
2022-12-31T22:16:07.863Z,15.54
2022-12-31T22:18:39.024Z,15.45
2022-12-31T22:21:27.797Z,15.48
2022-12-31T22:23:56.827Z,15.53
2022-12-31T22:26:26.661Z,15.51
2022-12-31T22:28:59.403Z,15.43
2022-12-31T22:31:32.369Z,15.46
2022-12-31T22:34:00.141Z,15.50
2022-12-31T22:36:27.676Z,15.61
2022-12-31T22:38:58.245Z,15.63
2022-12-31T22:41:27.444Z,15.67
2022-12-31T22:44:03.055Z,15.72
2022-12-31T22:46:32.464Z,15.77
2022-12-31T22:49:01.246Z,15.75
2022-12-31T22:51:56.669Z,15.74
2022-12-31T22:54:17.725Z,15.74
2022-12-31T22:56:45.241Z,15.70
2022-12-31T22:59:12.755Z,15.70
2022-12-31T23:01:40.998Z,15.73
2022-12-31T23:04:08.739Z,15.70
2022-12-31T23:06:54.561Z,15.76
2022-12-31T23:09:40.801Z,15.83
2022-12-31T23:12:09.750Z,15.89
2022-12-31T23:14:56.491Z,15.88
2022-12-31T23:17:44.895Z,15.90
2022-12-31T23:20:37.515Z,15.86
2022-12-31T23:23:10.671Z,15.82
2022-12-31T23:26:01.261Z,15.80
2022-12-31T23:28:28.805Z,15.74
2022-12-31T23:30:56.380Z,15.72
2022-12-31T23:33:26.075Z,15.74
2022-12-31T23:36:07.146Z,15.74
2022-12-31T23:38:35.007Z,15.71
2022-12-31T23:41:12.536Z,15.69
2022-12-31T23:43:40.147Z,15.70
2022-12-31T23:46:07.731Z,15.75
2022-12-31T23:48:35.337Z,15.85
2022-12-31T23:51:02.845Z,15.85
2022-12-31T23:53:30.406Z,15.75
2022-12-31T23:56:13.871Z,15.70
2022-12-31T23:58:44.118Z,15.75
